Time;durP1;ratioP1;P1;durP2;ratioP2;P2;SDS_P1;SDS_P2;PMS_P1;PMS_P2;Temp;Humidity;BMP_temperature;BMP_pressure;BME280_temperature;BME280_humidity;BME280_pressure;Samples;Min_cycle;Max_cycle;Signal;HPM_P1;HPM_P2
2020/12/25 00:01:57;;;;;;;189.98;71.75;;;;;;;5.44;87.80;99737.19;6195742;23;19997;-66
2020/12/25 00:04:23;;;;;;;166.23;65.38;;;;;;;5.65;86.97;99735.38;6194106;23;20004;-66
2020/12/25 00:06:48;;;;;;;167.73;64.43;;;;;;;5.83;84.76;99734.75;6195661;23;20310;-65
2020/12/25 00:09:14;;;;;;;200.00;65.72;;;;;;;5.79;83.56;99731.56;6194127;23;20063;-64
2020/12/25 00:11:39;;;;;;;250.02;77.20;;;;;;;5.55;83.59;99737.13;6196181;23;20230;-67
2020/12/25 00:14:05;;;;;;;270.52;78.60;;;;;;;5.30;84.61;99754.09;6194093;23;20304;-68
2020/12/25 00:16:31;;;;;;;248.73;77.20;;;;;;;5.26;85.97;99744.00;6195881;23;20334;-68
2020/12/25 00:18:57;;;;;;;331.48;83.43;;;;;;;4.93;87.19;99745.78;6194678;23;20244;-68
2020/12/25 00:21:23;;;;;;;377.30;88.27;;;;;;;4.73;88.97;99750.06;6195438;23;20179;-68
2020/12/25 00:23:48;;;;;;;294.48;81.10;;;;;;;4.74;90.03;99759.59;6195060;23;20001;-67
2020/12/25 00:26:25;;;;;;;282.23;74.97;;;;;;;4.69;90.30;99756.50;6194497;23;20006;-67
2020/12/25 00:28:51;;;;;;;279.10;77.23;;;;;;;4.67;90.42;99761.03;6194736;23;20001;-67
2020/12/25 00:31:22;;;;;;;286.63;72.87;;;;;;;4.78;90.78;99765.41;6194241;23;20013;-68
2020/12/25 00:33:48;;;;;;;289.50;73.03;;;;;;;4.72;90.84;99760.66;6193842;23;20005;-67
2020/12/25 00:36:13;;;;;;;211.90;67.90;;;;;;;4.63;92.10;99754.38;6194243;23;20019;-67
2020/12/25 00:38:38;;;;;;;271.20;70.17;;;;;;;4.72;93.32;99758.88;6193186;23;20008;-68
2020/12/25 00:41:04;;;;;;;267.92;71.93;;;;;;;4.89;92.32;99754.88;6194579;23;20015;-68
2020/12/25 00:43:29;;;;;;;364.10;75.15;;;;;;;4.99;91.22;99753.16;6193766;23;20275;-68
2020/12/25 00:45:55;;;;;;;362.50;78.23;;;;;;;4.94;91.59;99755.34;6195794;23;20032;-67
2020/12/25 00:48:20;;;;;;;269.98;70.90;;;;;;;5.18;91.39;99747.22;6191988;23;20036;-67
2020/12/25 00:50:45;;;;;;;392.50;75.82;;;;;;;5.11;92.27;99743.44;6195485;23;20009;-67
2020/12/25 00:53:11;;;;;;;323.52;69.53;;;;;;;5.15;92.65;99744.84;6193815;23;20342;-67
2020/12/25 00:55:36;;;;;;;287.00;69.35;;;;;;;5.25;92.71;99753.66;6194988;23;20268;-68
2020/12/25 00:58:02;;;;;;;280.52;68.75;;;;;;;5.41;91.86;99753.22;6193932;23;20012;-65
2020/12/25 01:00:27;;;;;;;263.42;69.10;;;;;;;5.49;91.26;99748.16;6195237;23;20001;-64
2020/12/25 01:02:52;;;;;;;238.35;63.50;;;;;;;5.47;91.43;99744.81;6194007;23;20000;-65
2020/12/25 01:05:18;;;;;;;227.45;67.80;;;;;;;5.61;91.38;99739.22;6195124;23;20325;-66
2020/12/25 01:07:43;;;;;;;271.45;62.63;;;;;;;5.71;91.26;99736.63;6193673;23;20019;-65
2020/12/25 01:10:09;;;;;;;274.10;61.75;;;;;;;5.79;90.37;99734.19;6195003;23;20089;-66
2020/12/25 01:12:34;;;;;;;190.38;55.33;;;;;;;5.83;89.56;99734.75;6194109;23;20056;-66
2020/12/25 01:14:59;;;;;;;335.20;63.08;;;;;;;5.93;88.33;99718.09;6194232;23;20001;-65
2020/12/25 01:17:25;;;;;;;215.25;58.90;;;;;;;5.96;86.41;99717.81;6194088;23;20036;-67
2020/12/25 01:19:50;;;;;;;263.98;59.95;;;;;;;5.98;85.72;99717.69;6193877;23;20008;-66
2020/12/25 01:22:16;;;;;;;248.18;60.25;;;;;;;5.84;87.38;99725.91;6193277;23;20195;-65
2020/12/25 01:24:41;;;;;;;221.63;57.90;;;;;;;5.76;87.97;99724.78;6193261;23;20246;-65
2020/12/25 01:27:06;;;;;;;285.08;61.90;;;;;;;5.85;87.99;99710.00;6192225;23;20024;-66
2020/12/25 01:29:32;;;;;;;260.42;60.88;;;;;;;5.90;87.01;99710.47;6193908;23;20286;-66
2020/12/25 01:31:57;;;;;;;220.35;55.47;;;;;;;5.84;86.61;99703.09;6193028;23;20025;-66
2020/12/25 01:34:23;;;;;;;280.35;57.15;;;;;;;5.90;86.53;99697.34;6194877;23;20027;-65
2020/12/25 01:36:48;;;;;;;253.95;58.38;;;;;;;5.62;87.76;99701.50;6193113;23;20036;-64
2020/12/25 01:39:13;;;;;;;232.77;56.78;;;;;;;5.44;88.78;99701.25;6194474;23;20000;-64
2020/12/25 01:41:39;;;;;;;275.52;59.63;;;;;;;5.43;89.58;99707.47;6193867;23;20009;-66
2020/12/25 01:44:04;;;;;;;250.40;57.15;;;;;;;5.53;90.20;99704.06;6194527;23;20023;-66
2020/12/25 01:46:30;;;;;;;185.80;54.33;;;;;;;5.49;88.94;99677.22;6193553;23;20052;-66
2020/12/25 01:48:55;;;;;;;168.48;49.70;;;;;;;5.72;87.62;99681.34;6194565;23;20113;-65
2020/12/25 01:51:21;;;;;;;192.23;48.67;;;;;;;5.71;87.65;99686.72;6193592;23;20005;-64
2020/12/25 01:53:48;;;;;;;158.35;45.80;;;;;;;5.64;87.13;99682.97;6193397;23;20337;-66
2020/12/25 01:56:15;;;;;;;211.48;52.75;;;;;;;5.81;85.26;99695.47;6193636;23;20069;-66
2020/12/25 01:58:41;;;;;;;178.60;47.90;;;;;;;5.59;85.72;99695.66;6194277;23;19997;-66
2020/12/25 02:01:06;;;;;;;153.48;43.58;;;;;;;5.63;86.77;99697.06;6194491;23;20028;-65
2020/12/25 02:03:32;;;;;;;158.63;46.30;;;;;;;5.54;87.53;99713.59;6193466;23;20012;-65
2020/12/25 02:05:57;;;;;;;164.23;47.93;;;;;;;5.32;87.57;99722.47;6194695;23;20005;-66
2020/12/25 02:08:23;;;;;;;181.00;51.40;;;;;;;5.42;88.65;99715.47;6193170;23;20011;-65
2020/12/25 02:10:48;;;;;;;188.10;51.58;;;;;;;5.38;89.35;99700.94;6194763;23;20028;-65
2020/12/25 02:13:14;;;;;;;159.63;52.35;;;;;;;5.49;88.70;99693.00;6193227;23;20008;-65
2020/12/25 02:15:41;;;;;;;204.33;55.10;;;;;;;5.53;88.90;99690.94;6194736;23;20005;-65
2020/12/25 02:18:06;;;;;;;142.73;51.15;;;;;;;5.45;88.42;99675.84;6192771;23;20009;-65
2020/12/25 02:20:32;;;;;;;162.27;51.60;;;;;;;5.55;88.60;99666.19;6194562;23;20079;-66
2020/12/25 02:22:57;;;;;;;187.60;54.13;;;;;;;5.56;88.13;99667.88;6193093;23;19997;-66
2020/12/25 02:25:23;;;;;;;251.10;57.67;;;;;;;5.61;87.74;99667.47;6194358;23;20055;-66
2020/12/25 02:27:48;;;;;;;166.98;57.95;;;;;;;5.43;87.66;99681.22;6191464;23;20198;-65
2020/12/25 02:30:14;;;;;;;179.53;63.83;;;;;;;5.48;88.15;99683.44;6194276;23;20013;-65
2020/12/25 02:32:40;;;;;;;245.98;68.95;;;;;;;5.39;87.73;99685.06;6192946;23;20104;-65
2020/12/25 02:35:07;;;;;;;186.20;65.33;;;;;;;5.20;88.12;99697.22;6194402;23;20011;-65
2020/12/25 02:37:32;;;;;;;302.73;71.45;;;;;;;5.18;88.42;99701.78;6192764;23;20298;-66
2020/12/25 02:39:58;;;;;;;221.67;69.90;;;;;;;5.30;88.75;99688.47;6192961;23;20020;-65
2020/12/25 02:42:23;;;;;;;215.85;65.65;;;;;;;5.29;88.47;99681.56;6193586;23;20012;-65
2020/12/25 02:44:49;;;;;;;248.52;67.53;;;;;;;5.38;87.85;99672.91;6193756;23;20073;-66
2020/12/25 02:47:14;;;;;;;211.83;62.93;;;;;;;5.42;87.58;99676.09;6193753;23;19997;-66
2020/12/25 02:49:39;;;;;;;184.00;60.35;;;;;;;5.43;87.21;99677.75;6192322;23;20009;-65
2020/12/25 02:52:05;;;;;;;172.98;59.22;;;;;;;5.56;87.17;99674.91;6196070;23;20182;-65
2020/12/25 02:54:31;;;;;;;243.25;63.60;;;;;;;5.41;87.07;99671.81;6194752;23;19997;-65
2020/12/25 02:56:57;;;;;;;200.93;60.20;;;;;;;5.48;87.05;99674.75;6196280;23;20001;-66
2020/12/25 02:59:23;;;;;;;188.03;61.20;;;;;;;5.42;86.43;99690.06;6194624;23;20047;-66
2020/12/25 03:01:50;;;;;;;209.02;61.13;;;;;;;5.30;86.51;99679.75;6194958;23;20001;-66
2020/12/25 03:04:15;;;;;;;159.38;55.88;;;;;;;5.29;86.74;99693.84;6194716;23;19997;-66
2020/12/25 03:06:41;;;;;;;179.70;57.07;;;;;;;5.56;85.89;99693.28;6196916;23;20011;-66
2020/12/25 03:09:07;;;;;;;192.13;60.17;;;;;;;5.66;84.66;99686.28;6194745;23;20008;-65
2020/12/25 03:11:32;;;;;;;174.43;62.47;;;;;;;5.55;84.93;99689.84;6196660;23;20016;-66
2020/12/25 03:13:58;;;;;;;197.35;66.05;;;;;;;5.49;85.76;99698.25;6194723;23;20043;-66
2020/12/25 03:16:23;;;;;;;225.97;68.27;;;;;;;5.40;86.00;99706.91;6195586;23;20096;-66
2020/12/25 03:18:48;;;;;;;189.47;68.07;;;;;;;5.38;86.82;99695.69;6193134;23;20339;-66
2020/12/25 03:21:14;;;;;;;189.10;63.30;;;;;;;5.39;85.84;99692.94;6195141;23;20081;-66
2020/12/25 03:23:39;;;;;;;189.07;58.85;;;;;;;5.38;86.59;99693.91;6194073;23;20032;-64
2020/12/25 03:26:05;;;;;;;192.03;59.43;;;;;;;5.39;86.42;99676.34;6195096;23;20012;-65
2020/12/25 03:28:31;;;;;;;155.07;56.93;;;;;;;5.37;85.83;99670.41;6195600;23;20020;-66
2020/12/25 03:30:56;;;;;;;146.60;57.00;;;;;;;5.32;86.79;99669.97;6194915;23;20294;-64
2020/12/25 03:33:22;;;;;;;181.53;55.97;;;;;;;5.35;86.32;99678.41;6195852;23;20044;-65
2020/12/25 03:35:47;;;;;;;178.80;54.77;;;;;;;5.42;86.06;99683.97;6194546;23;20013;-65
2020/12/25 03:38:13;;;;;;;138.82;53.40;;;;;;;5.44;86.76;99664.50;6196041;23;20069;-65
2020/12/25 03:40:38;;;;;;;171.35;55.25;;;;;;;5.52;85.47;99673.50;6194416;23;20009;-66
2020/12/25 03:43:03;;;;;;;167.67;49.70;;;;;;;5.50;85.01;99686.78;6196249;23;20047;-65
2020/12/25 03:45:29;;;;;;;179.07;52.50;;;;;;;5.47;84.98;99689.66;6194507;23;20048;-65
2020/12/25 03:47:54;;;;;;;148.30;51.38;;;;;;;5.52;85.11;99686.66;6194385;23;20012;-66
2020/12/25 03:50:20;;;;;;;198.98;51.90;;;;;;;5.54;84.83;99693.44;6194333;23;20009;-65
2020/12/25 03:52:45;;;;;;;192.65;50.35;;;;;;;5.58;84.80;99700.09;6195798;23;20060;-66
2020/12/25 03:55:10;;;;;;;169.27;50.22;;;;;;;5.59;83.98;99695.66;6194212;23;20009;-65
2020/12/25 03:57:36;;;;;;;223.50;53.03;;;;;;;5.41;84.97;99698.06;6195631;23;20012;-66
2020/12/25 04:00:03;;;;;;;186.30;52.33;;;;;;;5.36;85.76;99695.00;6194399;23;20023;-66
2020/12/25 04:02:29;;;;;;;227.65;54.72;;;;;;;5.42;86.61;99687.44;6195556;23;20004;-65
2020/12/25 04:04:54;;;;;;;213.97;51.60;;;;;;;5.31;86.92;99684.06;6194235;23;20290;-66
2020/12/25 04:07:19;;;;;;;204.77;56.47;;;;;;;5.38;87.04;99687.81;6195642;23;20092;-66
2020/12/25 04:09:45;;;;;;;211.73;55.40;;;;;;;5.32;87.23;99690.97;6193190;23;20056;-66
2020/12/25 04:12:10;;;;;;;240.75;58.28;;;;;;;5.19;88.00;99682.44;6193538;23;20020;-66
2020/12/25 04:14:36;;;;;;;229.17;57.30;;;;;;;5.17;87.74;99677.31;6195370;23;20424;-66
2020/12/25 04:17:01;;;;;;;316.60;62.27;;;;;;;5.31;86.77;99686.69;6194219;23;20096;-65
2020/12/25 04:19:27;;;;;;;215.23;57.07;;;;;;;5.14;87.49;99682.81;6195232;23;20001;-66
2020/12/25 04:21:52;;;;;;;231.40;57.93;;;;;;;5.21;87.95;99691.88;6194526;23;20001;-66
2020/12/25 04:24:17;;;;;;;268.83;62.23;;;;;;;5.31;87.71;99691.94;6194768;23;20075;-66
2020/12/25 04:26:47;;;;;;;281.10;61.90;;;;;;;5.32;86.97;99689.19;6193810;23;20061;-64
2020/12/25 04:29:12;;;;;;;183.00;59.63;;;;;;;5.34;87.09;99687.25;6195602;23;20024;-66
2020/12/25 04:31:38;;;;;;;230.83;64.07;;;;;;;5.31;86.71;99689.31;6193852;23;20013;-64
2020/12/25 04:34:03;;;;;;;240.60;60.03;;;;;;;5.30;87.25;99685.84;6195452;23;20001;-64
2020/12/25 04:36:29;;;;;;;268.53;63.57;;;;;;;5.35;87.41;99681.03;6194345;23;20013;-65
2020/12/25 04:38:54;;;;;;;232.07;61.60;;;;;;;5.38;87.35;99672.06;6195378;23;19997;-65
2020/12/25 04:41:20;;;;;;;314.23;70.17;;;;;;;5.60;86.29;99677.16;6194333;23;20005;-65
2020/12/25 04:43:46;;;;;;;224.63;63.43;;;;;;;5.54;86.57;99668.97;6195767;23;20013;-64
2020/12/25 04:46:12;;;;;;;262.87;67.37;;;;;;;5.33;86.71;99669.84;6193953;23;20017;-66
2020/12/25 04:48:38;;;;;;;269.85;67.53;;;;;;;5.64;85.38;99662.78;6193696;23;20016;-66
2020/12/25 04:51:04;;;;;;;271.13;64.73;;;;;;;5.60;84.78;99663.19;6193655;23;20008;-65
2020/12/25 04:53:33;;;;;;;294.33;66.70;;;;;;;5.40;85.82;99660.47;6195335;23;20009;-66
2020/12/25 04:55:58;;;;;;;311.97;67.73;;;;;;;5.31;85.65;99663.06;6194302;23;20041;-65
2020/12/25 04:58:24;;;;;;;262.00;63.43;;;;;;;5.25;86.93;99667.03;6194682;23;20060;-66
2020/12/25 05:01:08;;;;;;;241.60;63.17;;;;;;;5.21;86.70;99667.41;6192895;23;20016;-64
2020/12/25 05:03:35;;;;;;;278.55;65.82;;;;;;;5.08;87.31;99676.28;6195502;23;20005;-68
2020/12/25 05:06:05;;;;;;;254.07;61.70;;;;;;;4.86;89.01;99680.84;6194007;23;20298;-68
2020/12/25 05:08:51;;;;;;;288.07;67.23;;;;;;;5.00;88.98;99677.91;6195056;23;20025;-67
2020/12/25 05:11:19;;;;;;;284.13;66.97;;;;;;;4.96;88.83;99686.97;6192210;23;20009;-69
2020/12/25 05:13:52;;;;;;;335.93;66.80;;;;;;;4.87;90.00;99688.59;6194191;23;20099;-68
2020/12/25 05:16:20;;;;;;;269.17;62.93;;;;;;;5.04;89.14;99684.56;6193706;23;20009;-68
2020/12/25 05:18:48;;;;;;;293.47;62.80;;;;;;;4.94;89.17;99674.00;6194450;23;20020;-68
2020/12/25 05:21:15;;;;;;;306.30;66.60;;;;;;;4.87;89.54;99682.50;6194095;23;20040;-67
2020/12/25 05:23:43;;;;;;;305.23;64.87;;;;;;;4.80;90.08;99685.63;6193514;23;20029;-68
2020/12/25 05:26:10;;;;;;;257.02;63.33;;;;;;;4.71;90.79;99689.00;6193659;23;20027;-67
2020/12/25 05:28:38;;;;;;;345.47;71.40;;;;;;;4.65;92.09;99683.44;6194871;23;20036;-68
2020/12/25 05:31:05;;;;;;;309.90;69.87;;;;;;;4.67;92.15;99690.22;6192288;23;20013;-66
2020/12/25 05:33:31;;;;;;;315.07;66.13;;;;;;;4.81;91.71;99683.84;6194643;23;20001;-66
2020/12/25 05:35:56;;;;;;;286.63;63.57;;;;;;;4.96;91.49;99692.22;6194654;23;20017;-64
2020/12/25 05:38:23;;;;;;;256.00;58.83;;;;;;;4.91;91.83;99697.03;6193710;23;20099;-65
2020/12/25 05:40:49;;;;;;;211.30;60.60;;;;;;;4.96;92.06;99694.84;6194867;23;20308;-66
2020/12/25 05:43:17;;;;;;;241.23;60.63;;;;;;;5.08;91.69;99701.72;6193484;23;20001;-65
2020/12/25 05:45:43;;;;;;;245.77;61.50;;;;;;;4.91;91.56;99702.28;6194455;23;20068;-65
2020/12/25 05:48:09;;;;;;;289.53;65.17;;;;;;;5.05;91.68;99704.59;6193458;23;20005;-66
2020/12/25 05:50:35;;;;;;;304.75;72.28;;;;;;;5.11;91.26;99696.19;6194626;23;20008;-66
2020/12/25 05:53:01;;;;;;;248.50;62.30;;;;;;;5.27;90.60;99690.53;6193154;23;20004;-65
2020/12/25 05:55:27;;;;;;;229.83;60.13;;;;;;;5.25;90.17;99697.69;6194587;23;20013;-66
2020/12/25 05:57:54;;;;;;;292.30;69.13;;;;;;;5.31;90.51;99707.69;6193193;23;20347;-66
2020/12/25 06:00:23;;;;;;;261.17;68.00;;;;;;;5.24;90.12;99710.00;6194827;23;20232;-65
2020/12/25 06:02:50;;;;;;;262.00;67.77;;;;;;;5.24;90.57;99712.63;6193283;23;20001;-64
2020/12/25 06:05:17;;;;;;;270.43;66.60;;;;;;;5.17;90.23;99706.19;6194661;23;20009;-66
2020/12/25 06:07:56;;;;;;;159.93;59.93;;;;;;;5.23;90.87;99700.44;6193166;23;20069;-66
2020/12/25 06:10:26;;;;;;;253.03;63.80;;;;;;;5.44;90.08;99695.19;6194662;23;20016;-67
2020/12/25 06:12:53;;;;;;;316.93;64.10;;;;;;;5.42;89.81;99695.31;6193045;23;20012;-66
2020/12/25 06:15:28;;;;;;;193.07;58.78;;;;;;;5.52;89.27;99690.09;6194457;23;20078;-67
2020/12/25 06:18:10;;;;;;;260.50;61.78;;;;;;;5.58;88.90;99701.88;6193283;23;20234;-66
2020/12/25 06:20:43;;;;;;;236.25;59.40;;;;;;;5.72;87.68;99706.78;6194482;23;20219;-65
2020/12/25 06:23:11;;;;;;;238.07;56.60;;;;;;;5.61;88.00;99709.50;6193386;23;20004;-65
2020/12/25 06:25:39;;;;;;;203.27;53.58;;;;;;;5.67;88.09;99719.47;6194099;23;20005;-65
2020/12/25 06:28:05;;;;;;;315.90;69.57;;;;;;;5.51;88.06;99729.63;6192331;23;20001;-65
2020/12/25 06:30:32;;;;;;;253.40;65.88;;;;;;;5.65;89.33;99732.75;6194153;23;20275;-65
2020/12/25 06:32:58;;;;;;;243.15;63.67;;;;;;;5.59;88.82;99733.28;6193172;23;20008;-66
2020/12/25 06:35:35;;;;;;;371.40;72.70;;;;;;;5.63;88.78;99737.28;6192908;23;20017;-64
2020/12/25 06:38:07;;;;;;;282.03;68.70;;;;;;;5.71;89.68;99742.72;6193962;23;20001;-64
2020/12/25 06:40:33;;;;;;;230.77;63.50;;;;;;;5.61;89.45;99738.38;6194476;23;20012;-65
2020/12/25 06:42:58;;;;;;;228.30;65.97;;;;;;;5.56;89.44;99741.41;6193613;23;20317;-65
2020/12/25 06:45:32;;;;;;;268.37;71.33;;;;;;;5.61;89.64;99741.00;6193555;23;20005;-65
2020/12/25 06:48:18;;;;;;;299.17;70.85;;;;;;;5.26;90.14;99744.00;6193820;23;20036;-66
2020/12/25 06:50:55;;;;;;;251.32;62.13;;;;;;;5.43;90.01;99748.66;6193354;23;20053;-66
2020/12/25 06:53:42;;;;;;;208.25;52.88;;;;;;;5.61;89.48;99751.53;6193546;23;20176;-65
2020/12/25 06:56:18;;;;;;;235.60;54.47;;;;;;;5.66;88.77;99750.16;6194229;23;20008;-66
2020/12/25 06:58:49;;;;;;;292.73;56.93;;;;;;;5.54;89.29;99753.84;6192896;23;20013;-67
2020/12/25 07:01:17;;;;;;;200.10;54.47;;;;;;;5.57;90.14;99742.25;6194430;23;20179;-66
2020/12/25 07:03:43;;;;;;;202.63;50.95;;;;;;;5.62;90.34;99740.88;6193390;23;20010;-66
2020/12/25 07:06:11;;;;;;;186.10;53.80;;;;;;;5.71;90.00;99755.03;6194423;23;20058;-66
2020/12/25 07:08:44;;;;;;;223.23;54.75;;;;;;;5.58;90.09;99757.03;6192196;23;20009;-68
2020/12/25 07:11:11;;;;;;;215.48;57.38;;;;;;;5.55;90.06;99755.50;6194059;23;20294;-68
2020/12/25 07:13:38;;;;;;;194.18;53.33;;;;;;;5.73;89.87;99761.81;6193753;23;20055;-68
2020/12/25 07:16:05;;;;;;;233.52;55.92;;;;;;;5.77;89.30;99754.50;6193036;23;20002;-68
2020/12/25 07:18:31;;;;;;;200.33;57.27;;;;;;;5.70;90.18;99746.31;6193844;23;20001;-68
2020/12/25 07:20:58;;;;;;;279.77;61.90;;;;;;;5.69;90.33;99743.81;6193169;23;20015;-68
2020/12/25 07:23:24;;;;;;;312.35;56.30;;;;;;;5.76;89.57;99748.41;6194147;23;20001;-68
2020/12/25 07:25:50;;;;;;;238.13;48.35;;;;;;;5.84;89.62;99752.19;6192366;23;20231;-69
2020/12/25 07:28:16;;;;;;;224.10;52.38;;;;;;;5.92;89.72;99757.66;6192330;23;20005;-67
2020/12/25 07:30:41;;;;;;;209.63;53.20;;;;;;;5.72;89.98;99752.28;6192114;23;20202;-68
2020/12/25 07:33:07;;;;;;;247.70;55.08;;;;;;;5.83;89.96;99743.47;6194245;23;20052;-68
2020/12/25 07:35:33;;;;;;;208.25;48.85;;;;;;;5.71;89.78;99736.63;6192694;23;20005;-67
2020/12/25 07:37:58;;;;;;;264.80;51.42;;;;;;;5.69;89.93;99747.28;6195347;23;20001;-67
2020/12/25 07:40:25;;;;;;;241.00;42.37;;;;;;;5.68;90.54;99740.38;6194332;23;20005;-69
2020/12/25 07:42:50;;;;;;;238.18;42.75;;;;;;;5.72;90.93;99746.19;6196010;23;20005;-68
2020/12/25 07:45:17;;;;;;;284.20;52.47;;;;;;;5.76;91.19;99750.22;6193063;23;20017;-67
2020/12/25 07:47:43;;;;;;;207.65;52.30;;;;;;;6.03;90.88;99757.56;6194280;23;20009;-67
2020/12/25 07:50:08;;;;;;;240.45;58.00;;;;;;;6.04;90.37;99759.22;6194356;23;20036;-67
2020/12/25 07:52:34;;;;;;;230.65;57.85;;;;;;;6.06;90.50;99766.00;6195686;23;20001;-67
2020/12/25 07:54:59;;;;;;;217.63;57.55;;;;;;;6.01;89.96;99764.75;6194683;23;20012;-68
2020/12/25 07:57:25;;;;;;;251.05;56.92;;;;;;;6.23;90.01;99766.34;6195468;23;20020;-67
2020/12/25 07:59:51;;;;;;;222.82;53.45;;;;;;;6.19;89.71;99763.16;6194040;23;20052;-67
2020/12/25 08:02:19;;;;;;;201.43;52.80;;;;;;;6.25;87.90;99749.50;6194565;23;20195;-69
2020/12/25 08:04:45;;;;;;;232.15;52.10;;;;;;;6.26;87.54;99751.16;6195427;23;20005;-68
2020/12/25 08:07:11;;;;;;;306.08;59.10;;;;;;;6.32;87.53;99760.31;6194399;23;20025;-68
2020/12/25 08:09:38;;;;;;;233.43;57.22;;;;;;;6.29;88.69;99778.97;6194182;23;20021;-68
2020/12/25 08:12:09;;;;;;;331.33;56.10;;;;;;;6.55;87.83;99777.53;6194277;23;20234;-67
2020/12/25 08:14:39;;;;;;;250.15;52.50;;;;;;;6.42;89.02;99779.56;6195600;23;20008;-67
2020/12/25 08:17:06;;;;;;;216.20;50.83;;;;;;;6.30;89.30;99776.22;6193284;23;20001;-68
2020/12/25 08:19:36;;;;;;;195.13;49.92;;;;;;;6.39;89.15;99759.63;6195466;23;20024;-68
2020/12/25 08:22:03;;;;;;;236.68;53.20;;;;;;;6.42;87.98;99752.44;6193998;23;20309;-68
2020/12/25 08:24:29;;;;;;;202.20;50.95;;;;;;;6.57;88.59;99772.13;6195475;23;20344;-67
2020/12/25 08:26:58;;;;;;;270.90;53.75;;;;;;;6.57;87.75;99769.50;6193865;23;20061;-67
2020/12/25 08:29:24;;;;;;;194.02;46.20;;;;;;;6.59;87.87;99768.38;6195546;23;20024;-67
2020/12/25 08:31:49;;;;;;;255.20;41.83;;;;;;;6.65;89.57;99764.38;6193436;23;20207;-68
2020/12/25 08:34:21;;;;;;;229.68;44.55;;;;;;;6.26;90.49;99760.84;6195358;23;19997;-69
2020/12/25 08:37:00;;;;;;;173.23;42.47;;;;;;;6.01;93.25;99770.00;6193928;23;20016;-68
2020/12/25 08:39:30;;;;;;;223.00;44.33;;;;;;;5.95;94.17;99774.00;6193835;23;20005;-64
2020/12/25 08:41:57;;;;;;;304.42;48.65;;;;;;;6.05;94.65;99764.34;6194259;23;20055;-67
2020/12/25 08:44:23;;;;;;;137.57;38.97;;;;;;;6.09;95.07;99770.16;6193828;23;20001;-67
2020/12/25 08:46:48;;;;;;;178.38;39.72;;;;;;;6.17;95.79;99774.75;6193528;23;20016;-67
2020/12/25 08:49:28;;;;;;;172.10;38.85;;;;;;;6.15;94.97;99774.91;6194520;23;20001;-68
2020/12/25 08:51:53;;;;;;;190.68;39.80;;;;;;;6.23;94.35;99761.06;6192351;23;20137;-69
2020/12/25 08:54:30;;;;;;;264.40;43.78;;;;;;;6.35;94.00;99758.25;6193619;23;20303;-67
2020/12/25 08:56:56;;;;;;;185.70;38.20;;;;;;;6.50;94.30;99766.56;6193546;23;20009;-68
2020/12/25 08:59:22;;;;;;;190.77;39.33;;;;;;;6.62;94.03;99754.97;6195172;23;20012;-68
2020/12/25 09:01:49;;;;;;;163.65;38.20;;;;;;;6.88;91.86;99755.25;6193275;23;20101;-68
2020/12/25 09:04:16;;;;;;;399.40;98.80;;;;;;;6.87;91.12;99758.03;6193099;23;20007;-67
2020/12/25 09:06:42;;;;;;;217.40;45.13;;;;;;;6.97;91.27;99756.22;6194552;23;20005;-68
2020/12/25 09:09:08;;;;;;;251.60;83.47;;;;;;;7.06;89.60;99752.75;6194432;23;20056;-67
2020/12/25 09:11:34;;;;;;;150.52;49.83;;;;;;;7.02;90.48;99754.00;6195182;23;20005;-67
2020/12/25 09:13:59;;;;;;;152.05;37.67;;;;;;;7.10;91.09;99748.06;6193844;23;20036;-67
2020/12/25 09:16:25;;;;;;;132.30;35.42;;;;;;;7.24;89.94;99747.63;6195326;23;20362;-68
2020/12/25 09:18:50;;;;;;;228.30;38.13;;;;;;;7.20;89.64;99738.34;6193281;23;20354;-68
2020/12/25 09:21:17;;;;;;;150.02;38.28;;;;;;;7.04;89.40;99739.75;6195524;23;20056;-68
2020/12/25 09:23:43;;;;;;;186.38;43.13;;;;;;;7.03;90.98;99735.44;6193975;23;20194;-68
2020/12/25 09:26:11;;;;;;;179.00;42.53;;;;;;;7.04;91.89;99720.47;6195211;23;20009;-68
2020/12/25 09:28:37;;;;;;;175.55;43.55;;;;;;;7.10;92.21;99717.28;6192579;23;20005;-67
2020/12/25 09:31:08;;;;;;;250.27;45.97;;;;;;;7.24;91.45;99711.59;6194804;23;20048;-68
2020/12/25 09:33:34;;;;;;;166.55;48.92;;;;;;;7.27;90.31;99707.84;6193359;23;20223;-68
2020/12/25 09:36:02;;;;;;;204.98;60.75;;;;;;;7.23;90.66;99707.28;6194485;23;20247;-69
2020/12/25 09:38:28;;;;;;;212.95;59.75;;;;;;;7.38;90.60;99705.06;6193405;23;20005;-67
2020/12/25 09:40:53;;;;;;;170.98;49.50;;;;;;;7.28;90.64;99707.72;6194530;23;20004;-68
2020/12/25 09:43:19;;;;;;;156.10;45.38;;;;;;;7.36;91.13;99701.75;6193965;23;20312;-69
2020/12/25 09:45:45;;;;;;;128.68;39.63;;;;;;;7.42;90.84;99695.06;6194188;23;20043;-67
2020/12/25 09:48:10;;;;;;;137.45;41.35;;;;;;;7.35;90.20;99689.53;6194224;23;20013;-67
2020/12/25 09:50:36;;;;;;;136.00;42.88;;;;;;;7.44;90.13;99696.59;6193580;23;19997;-69
2020/12/25 09:53:01;;;;;;;167.40;46.05;;;;;;;7.42;89.54;99689.81;6194612;23;20009;-68
2020/12/25 09:55:27;;;;;;;127.78;47.78;;;;;;;7.48;88.50;99692.69;6192845;23;19997;-67
2020/12/25 09:57:52;;;;;;;149.40;48.72;;;;;;;7.53;88.20;99673.81;6194708;23;20009;-67
2020/12/25 10:00:18;;;;;;;191.27;50.13;;;;;;;7.74;87.18;99673.59;6193002;23;20089;-67
2020/12/25 10:02:44;;;;;;;175.15;53.33;;;;;;;7.50;88.22;99669.66;6195131;23;20016;-68
2020/12/25 10:05:10;;;;;;;193.57;51.42;;;;;;;7.53;88.00;99669.38;6193319;23;20044;-68
2020/12/25 10:07:36;;;;;;;148.93;50.30;;;;;;;7.59;87.63;99663.53;6194954;23;20191;-67
2020/12/25 10:10:03;;;;;;;180.35;49.03;;;;;;;7.34;88.61;99670.28;6193388;23;20278;-67
2020/12/25 10:12:29;;;;;;;129.25;45.92;;;;;;;6.98;90.71;99666.59;6194694;23;20005;-67
2020/12/25 10:14:54;;;;;;;143.27;46.78;;;;;;;6.97;91.48;99658.81;6192887;23;19997;-67
2020/12/25 10:17:19;;;;;;;150.45;47.75;;;;;;;6.99;91.79;99659.53;6194604;23;20239;-67
2020/12/25 10:19:45;;;;;;;182.68;49.83;;;;;;;6.97;92.99;99651.75;6192974;23;20005;-67
2020/12/25 10:22:11;;;;;;;178.07;49.97;;;;;;;7.07;93.61;99638.56;6194616;23;20030;-68
2020/12/25 10:24:36;;;;;;;149.88;46.13;;;;;;;7.29;92.41;99635.63;6192808;23;20016;-67
2020/12/25 10:27:02;;;;;;;169.77;49.35;;;;;;;7.30;91.94;99632.03;6194339;23;20005;-68
2020/12/25 10:29:28;;;;;;;144.18;47.22;;;;;;;7.09;91.67;99628.75;6192862;23;20376;-68
2020/12/25 10:31:54;;;;;;;148.65;48.88;;;;;;;7.23;91.45;99620.38;6194245;23;20307;-67
2020/12/25 10:34:20;;;;;;;190.50;52.08;;;;;;;7.15;90.86;99619.44;6191402;23;20041;-68
2020/12/25 10:36:46;;;;;;;185.82;58.05;;;;;;;7.02;91.21;99609.22;6194378;23;20055;-67
2020/12/25 10:39:13;;;;;;;174.60;60.00;;;;;;;7.07;91.03;99609.63;6193060;23;20052;-67
2020/12/25 10:41:38;;;;;;;202.55;56.58;;;;;;;6.84;92.96;99613.56;6194823;23;20012;-68
2020/12/25 10:44:04;;;;;;;230.95;67.03;;;;;;;6.79;94.67;99616.59;6192881;23;20005;-67
2020/12/25 10:46:29;;;;;;;230.17;71.83;;;;;;;6.52;93.76;99608.59;6194767;23;20024;-67
2020/12/25 10:48:55;;;;;;;265.13;73.77;;;;;;;6.57;95.95;99604.59;6192792;23;20016;-68
2020/12/25 10:51:21;;;;;;;266.20;73.95;;;;;;;6.69;95.26;99607.91;6194284;23;20282;-68
2020/12/25 10:53:47;;;;;;;256.97;81.23;;;;;;;6.66;95.05;99622.16;6192831;23;20012;-66
2020/12/25 10:56:31;;;;;;;254.02;74.93;;;;;;;6.52;95.08;99616.50;6193759;23;20001;-66
2020/12/25 10:58:56;;;;;;;311.42;80.85;;;;;;;6.61;95.69;99616.50;6192923;23;20068;-65
2020/12/25 11:01:24;;;;;;;260.60;82.10;;;;;;;6.53;96.07;99608.47;6194738;23;20052;-69
2020/12/25 11:03:50;;;;;;;261.30;76.17;;;;;;;6.83;95.51;99593.47;6192894;23;20060;-67
2020/12/25 11:06:16;;;;;;;252.68;71.43;;;;;;;6.71;95.31;99583.09;6194087;23;20001;-68
2020/12/25 11:08:41;;;;;;;222.60;65.60;;;;;;;6.89;94.77;99585.84;6193407;23;20335;-68
2020/12/25 11:11:07;;;;;;;185.23;62.00;;;;;;;6.79;93.88;99586.81;6192987;23;20008;-69
2020/12/25 11:13:34;;;;;;;193.85;62.47;;;;;;;6.57;95.27;99587.97;6195263;23;20353;-67
2020/12/25 11:15:59;;;;;;;197.43;62.38;;;;;;;6.85;95.18;99575.72;6195189;23;19997;-67